sensor_id;sensor_type;location;lat;lon;timestamp;P1;durP1;ratioP1;P2;durP2;ratioP2
8893;SDS011;4483;48.622;9.230;2022-08-18T00:01:59;4.00;;;3.70;;
8893;SDS011;4483;48.622;9.230;2022-08-18T00:04:27;4.72;;;4.32;;
8893;SDS011;4483;48.622;9.230;2022-08-18T00:06:55;4.75;;;4.05;;
8893;SDS011;4483;48.622;9.230;2022-08-18T00:09:21;4.68;;;4.28;;
8893;SDS011;4483;48.622;9.230;2022-08-18T00:11:48;5.80;;;4.07;;
8893;SDS011;4483;48.622;9.230;2022-08-18T00:14:16;4.50;;;4.10;;
8893;SDS011;4483;48.622;9.230;2022-08-18T00:16:44;5.05;;;4.22;;
8893;SDS011;4483;48.622;9.230;2022-08-18T00:19:13;4.60;;;4.30;;
8893;SDS011;4483;48.622;9.230;2022-08-18T00:21:40;5.50;;;4.53;;
8893;SDS011;4483;48.622;9.230;2022-08-18T00:24:07;4.95;;;4.47;;
8893;SDS011;4483;48.622;9.230;2022-08-18T00:26:34;4.82;;;3.83;;
8893;SDS011;4483;48.622;9.230;2022-08-18T00:29:01;4.40;;;4.00;;
8893;SDS011;4483;48.622;9.230;2022-08-18T00:31:28;4.82;;;4.40;;
8893;SDS011;4483;48.622;9.230;2022-08-18T00:33:55;6.13;;;4.20;;
8893;SDS011;4483;48.622;9.230;2022-08-18T00:36:23;4.68;;;4.28;;
8893;SDS011;4483;48.622;9.230;2022-08-18T00:38:50;4.88;;;4.40;;
8893;SDS011;4483;48.622;9.230;2022-08-18T00:41:18;5.22;;;4.72;;
8893;SDS011;4483;48.622;9.230;2022-08-18T00:43:46;4.90;;;4.50;;
8893;SDS011;4483;48.622;9.230;2022-08-18T00:46:16;4.50;;;4.10;;
8893;SDS011;4483;48.622;9.230;2022-08-18T00:48:44;4.70;;;4.30;;
8893;SDS011;4483;48.622;9.230;2022-08-18T00:51:14;5.05;;;4.53;;
8893;SDS011;4483;48.622;9.230;2022-08-18T00:53:45;4.88;;;4.50;;
8893;SDS011;4483;48.622;9.230;2022-08-18T00:56:16;7.72;;;4.80;;
8893;SDS011;4483;48.622;9.230;2022-08-18T00:58:48;4.60;;;4.20;;
8893;SDS011;4483;48.622;9.230;2022-08-18T01:01:18;4.75;;;4.35;;
8893;SDS011;4483;48.622;9.230;2022-08-18T01:03:48;5.57;;;4.78;;
8893;SDS011;4483;48.622;9.230;2022-08-18T01:06:22;5.50;;;4.53;;
8893;SDS011;4483;48.622;9.230;2022-08-18T01:08:54;5.10;;;4.55;;
8893;SDS011;4483;48.622;9.230;2022-08-18T01:11:21;5.50;;;4.22;;
8893;SDS011;4483;48.622;9.230;2022-08-18T01:13:48;5.45;;;4.68;;
8893;SDS011;4483;48.622;9.230;2022-08-18T01:16:18;4.60;;;4.20;;
8893;SDS011;4483;48.622;9.230;2022-08-18T01:19:02;4.38;;;3.97;;
8893;SDS011;4483;48.622;9.230;2022-08-18T01:21:48;4.35;;;4.10;;
8893;SDS011;4483;48.622;9.230;2022-08-18T01:24:22;4.95;;;4.32;;
8893;SDS011;4483;48.622;9.230;2022-08-18T01:27:06;5.10;;;4.30;;
8893;SDS011;4483;48.622;9.230;2022-08-18T01:29:33;4.38;;;4.05;;
8893;SDS011;4483;48.622;9.230;2022-08-18T01:32:01;4.60;;;4.30;;
8893;SDS011;4483;48.622;9.230;2022-08-18T01:34:28;4.35;;;3.97;;
8893;SDS011;4483;48.622;9.230;2022-08-18T01:36:55;5.05;;;4.55;;
8893;SDS011;4483;48.622;9.230;2022-08-18T01:39:24;4.50;;;4.10;;
8893;SDS011;4483;48.622;9.230;2022-08-18T01:41:51;4.78;;;4.47;;
8893;SDS011;4483;48.622;9.230;2022-08-18T01:44:18;12.90;;;4.30;;
8893;SDS011;4483;48.622;9.230;2022-08-18T01:46:44;4.63;;;4.32;;
8893;SDS011;4483;48.622;9.230;2022-08-18T01:49:11;6.80;;;4.68;;
8893;SDS011;4483;48.622;9.230;2022-08-18T01:51:38;6.85;;;4.40;;
8893;SDS011;4483;48.622;9.230;2022-08-18T01:54:07;5.10;;;4.63;;
8893;SDS011;4483;48.622;9.230;2022-08-18T01:56:38;4.95;;;4.55;;
8893;SDS011;4483;48.622;9.230;2022-08-18T01:59:06;6.13;;;3.97;;
8893;SDS011;4483;48.622;9.230;2022-08-18T02:01:39;4.90;;;4.50;;
8893;SDS011;4483;48.622;9.230;2022-08-18T02:04:07;4.47;;;4.18;;
8893;SDS011;4483;48.622;9.230;2022-08-18T02:06:36;4.80;;;4.30;;
8893;SDS011;4483;48.622;9.230;2022-08-18T02:09:04;4.57;;;4.28;;
8893;SDS011;4483;48.622;9.230;2022-08-18T02:11:31;4.82;;;4.13;;
8893;SDS011;4483;48.622;9.230;2022-08-18T02:13:59;4.45;;;4.05;;
8893;SDS011;4483;48.622;9.230;2022-08-18T02:16:26;4.70;;;4.22;;
8893;SDS011;4483;48.622;9.230;2022-08-18T02:18:53;4.13;;;3.90;;
8893;SDS011;4483;48.622;9.230;2022-08-18T02:21:20;4.65;;;4.32;;
8893;SDS011;4483;48.622;9.230;2022-08-18T02:23:47;4.63;;;4.30;;
8893;SDS011;4483;48.622;9.230;2022-08-18T02:26:15;4.47;;;3.80;;
8893;SDS011;4483;48.622;9.230;2022-08-18T02:28:43;4.93;;;4.30;;
8893;SDS011;4483;48.622;9.230;2022-08-18T02:31:12;4.45;;;4.15;;
8893;SDS011;4483;48.622;9.230;2022-08-18T02:33:41;4.45;;;4.05;;
8893;SDS011;4483;48.622;9.230;2022-08-18T02:36:08;4.47;;;4.15;;
8893;SDS011;4483;48.622;9.230;2022-08-18T02:38:35;4.20;;;3.80;;
8893;SDS011;4483;48.622;9.230;2022-08-18T02:41:02;4.30;;;3.95;;
8893;SDS011;4483;48.622;9.230;2022-08-18T02:43:32;4.20;;;3.90;;
8893;SDS011;4483;48.622;9.230;2022-08-18T02:45:59;6.88;;;4.32;;
8893;SDS011;4483;48.622;9.230;2022-08-18T02:48:28;4.25;;;3.95;;
8893;SDS011;4483;48.622;9.230;2022-08-18T02:50:59;6.75;;;4.40;;
8893;SDS011;4483;48.622;9.230;2022-08-18T02:53:27;4.53;;;4.18;;
8893;SDS011;4483;48.622;9.230;2022-08-18T02:55:54;4.57;;;4.18;;
8893;SDS011;4483;48.622;9.230;2022-08-18T02:58:29;4.50;;;4.20;;
8893;SDS011;4483;48.622;9.230;2022-08-18T03:00:56;4.40;;;4.10;;
8893;SDS011;4483;48.622;9.230;2022-08-18T03:03:23;4.53;;;4.13;;
8893;SDS011;4483;48.622;9.230;2022-08-18T03:05:51;4.75;;;4.45;;
8893;SDS011;4483;48.622;9.230;2022-08-18T03:08:17;4.45;;;4.05;;
8893;SDS011;4483;48.622;9.230;2022-08-18T03:10:44;5.13;;;3.90;;
8893;SDS011;4483;48.622;9.230;2022-08-18T03:13:11;4.47;;;4.07;;
8893;SDS011;4483;48.622;9.230;2022-08-18T03:15:38;4.30;;;4.00;;
8893;SDS011;4483;48.622;9.230;2022-08-18T03:18:05;4.30;;;3.88;;
8893;SDS011;4483;48.622;9.230;2022-08-18T03:20:32;6.50;;;4.53;;
8893;SDS011;4483;48.622;9.230;2022-08-18T03:23:01;4.30;;;3.90;;
8893;SDS011;4483;48.622;9.230;2022-08-18T03:25:28;4.28;;;3.88;;
8893;SDS011;4483;48.622;9.230;2022-08-18T03:27:54;4.13;;;3.75;;
8893;SDS011;4483;48.622;9.230;2022-08-18T03:30:21;4.18;;;3.83;;
8893;SDS011;4483;48.622;9.230;2022-08-18T03:32:48;5.07;;;4.15;;
8893;SDS011;4483;48.622;9.230;2022-08-18T03:35:15;4.22;;;3.92;;
8893;SDS011;4483;48.622;9.230;2022-08-18T03:37:42;4.03;;;3.83;;
8893;SDS011;4483;48.622;9.230;2022-08-18T03:40:10;5.35;;;3.95;;
8893;SDS011;4483;48.622;9.230;2022-08-18T03:42:37;4.20;;;3.90;;
8893;SDS011;4483;48.622;9.230;2022-08-18T03:45:05;4.72;;;4.32;;
8893;SDS011;4483;48.622;9.230;2022-08-18T03:47:32;4.70;;;3.88;;
8893;SDS011;4483;48.622;9.230;2022-08-18T03:49:59;4.93;;;4.53;;
8893;SDS011;4483;48.622;9.230;2022-08-18T03:52:26;4.22;;;3.92;;
8893;SDS011;4483;48.622;9.230;2022-08-18T03:54:53;3.92;;;3.72;;
8893;SDS011;4483;48.622;9.230;2022-08-18T03:57:22;4.25;;;3.95;;
8893;SDS011;4483;48.622;9.230;2022-08-18T03:59:48;4.22;;;3.92;;
8893;SDS011;4483;48.622;9.230;2022-08-18T04:02:15;4.72;;;4.40;;
8893;SDS011;4483;48.622;9.230;2022-08-18T04:04:42;4.30;;;4.00;;
8893;SDS011;4483;48.622;9.230;2022-08-18T04:07:10;3.97;;;3.67;;
8893;SDS011;4483;48.622;9.230;2022-08-18T04:09:41;4.40;;;4.10;;
8893;SDS011;4483;48.622;9.230;2022-08-18T04:12:09;7.10;;;4.07;;
8893;SDS011;4483;48.622;9.230;2022-08-18T04:14:39;4.50;;;4.20;;
8893;SDS011;4483;48.622;9.230;2022-08-18T04:17:07;4.20;;;3.90;;
8893;SDS011;4483;48.622;9.230;2022-08-18T04:19:35;4.70;;;3.80;;
8893;SDS011;4483;48.622;9.230;2022-08-18T04:22:02;4.03;;;3.83;;
8893;SDS011;4483;48.622;9.230;2022-08-18T04:24:30;4.53;;;3.63;;
8893;SDS011;4483;48.622;9.230;2022-08-18T04:26:59;6.50;;;4.38;;
8893;SDS011;4483;48.622;9.230;2022-08-18T04:29:26;4.47;;;3.92;;
8893;SDS011;4483;48.622;9.230;2022-08-18T04:31:55;4.65;;;4.25;;
8893;SDS011;4483;48.622;9.230;2022-08-18T04:34:22;4.53;;;4.13;;
8893;SDS011;4483;48.622;9.230;2022-08-18T04:36:49;4.53;;;4.10;;
8893;SDS011;4483;48.622;9.230;2022-08-18T04:39:18;4.13;;;3.83;;
8893;SDS011;4483;48.622;9.230;2022-08-18T04:41:46;4.30;;;3.90;;
8893;SDS011;4483;48.622;9.230;2022-08-18T04:44:13;3.53;;;3.33;;
8893;SDS011;4483;48.622;9.230;2022-08-18T04:46:43;5.50;;;3.88;;
8893;SDS011;4483;48.622;9.230;2022-08-18T04:49:13;4.18;;;3.88;;
8893;SDS011;4483;48.622;9.230;2022-08-18T04:51:42;4.03;;;3.65;;
8893;SDS011;4483;48.622;9.230;2022-08-18T04:54:33;4.60;;;4.15;;
8893;SDS011;4483;48.622;9.230;2022-08-18T04:57:06;6.82;;;3.95;;
8893;SDS011;4483;48.622;9.230;2022-08-18T04:59:35;5.75;;;4.85;;
8893;SDS011;4483;48.622;9.230;2022-08-18T05:02:04;3.85;;;3.55;;
8893;SDS011;4483;48.622;9.230;2022-08-18T05:04:33;7.70;;;4.20;;
8893;SDS011;4483;48.622;9.230;2022-08-18T05:07:01;4.80;;;4.40;;
8893;SDS011;4483;48.622;9.230;2022-08-18T05:09:28;4.68;;;4.28;;
8893;SDS011;4483;48.622;9.230;2022-08-18T05:11:55;4.68;;;4.03;;
8893;SDS011;4483;48.622;9.230;2022-08-18T05:14:22;5.50;;;3.70;;
8893;SDS011;4483;48.622;9.230;2022-08-18T05:16:49;4.05;;;3.78;;
8893;SDS011;4483;48.622;9.230;2022-08-18T05:19:18;4.60;;;3.95;;
8893;SDS011;4483;48.622;9.230;2022-08-18T05:21:49;4.63;;;4.28;;
8893;SDS011;4483;48.622;9.230;2022-08-18T05:24:16;4.63;;;4.25;;
8893;SDS011;4483;48.622;9.230;2022-08-18T05:26:43;5.97;;;3.53;;
8893;SDS011;4483;48.622;9.230;2022-08-18T05:29:10;4.47;;;4.18;;
8893;SDS011;4483;48.622;9.230;2022-08-18T05:31:37;5.53;;;4.47;;
8893;SDS011;4483;48.622;9.230;2022-08-18T05:34:04;4.15;;;3.85;;
8893;SDS011;4483;48.622;9.230;2022-08-18T05:36:39;4.20;;;3.90;;
8893;SDS011;4483;48.622;9.230;2022-08-18T05:39:21;4.68;;;4.28;;
8893;SDS011;4483;48.622;9.230;2022-08-18T05:41:52;6.60;;;4.38;;
8893;SDS011;4483;48.622;9.230;2022-08-18T05:44:21;4.30;;;3.92;;
8893;SDS011;4483;48.622;9.230;2022-08-18T05:46:52;4.38;;;4.07;;
8893;SDS011;4483;48.622;9.230;2022-08-18T05:49:20;4.10;;;3.80;;
8893;SDS011;4483;48.622;9.230;2022-08-18T05:51:50;4.43;;;4.13;;
8893;SDS011;4483;48.622;9.230;2022-08-18T05:54:21;7.50;;;4.70;;
8893;SDS011;4483;48.622;9.230;2022-08-18T05:57:07;5.18;;;4.15;;
8893;SDS011;4483;48.622;9.230;2022-08-18T05:59:38;4.90;;;4.20;;
8893;SDS011;4483;48.622;9.230;2022-08-18T06:02:09;4.55;;;4.25;;
8893;SDS011;4483;48.622;9.230;2022-08-18T06:04:42;4.70;;;4.00;;
8893;SDS011;4483;48.622;9.230;2022-08-18T06:07:15;5.05;;;4.60;;
8893;SDS011;4483;48.622;9.230;2022-08-18T06:09:46;4.68;;;4.20;;
8893;SDS011;4483;48.622;9.230;2022-08-18T06:12:18;4.50;;;4.20;;
8893;SDS011;4483;48.622;9.230;2022-08-18T06:14:49;6.45;;;4.55;;
8893;SDS011;4483;48.622;9.230;2022-08-18T06:17:29;5.43;;;4.80;;
8893;SDS011;4483;48.622;9.230;2022-08-18T06:20:05;5.63;;;5.10;;
8893;SDS011;4483;48.622;9.230;2022-08-18T06:22:41;5.40;;;4.78;;
8893;SDS011;4483;48.622;9.230;2022-08-18T06:25:18;4.95;;;4.63;;
8893;SDS011;4483;48.622;9.230;2022-08-18T06:27:52;5.20;;;4.70;;
8893;SDS011;4483;48.622;9.230;2022-08-18T06:30:26;6.80;;;4.60;;
8893;SDS011;4483;48.622;9.230;2022-08-18T06:33:09;5.32;;;4.82;;
8893;SDS011;4483;48.622;9.230;2022-08-18T06:35:44;5.50;;;5.00;;
8893;SDS011;4483;48.622;9.230;2022-08-18T06:38:20;5.60;;;5.10;;
8893;SDS011;4483;48.622;9.230;2022-08-18T06:41:13;5.72;;;5.30;;
8893;SDS011;4483;48.622;9.230;2022-08-18T06:43:45;6.18;;;5.18;;
8893;SDS011;4483;48.622;9.230;2022-08-18T06:46:22;6.05;;;5.55;;
8893;SDS011;4483;48.622;9.230;2022-08-18T06:48:58;6.05;;;5.45;;
8893;SDS011;4483;48.622;9.230;2022-08-18T06:51:28;5.78;;;4.63;;
8893;SDS011;4483;48.622;9.230;2022-08-18T06:53:56;6.00;;;5.53;;
8893;SDS011;4483;48.622;9.230;2022-08-18T06:56:31;5.60;;;5.10;;
8893;SDS011;4483;48.622;9.230;2022-08-18T06:59:14;5.32;;;4.68;;
8893;SDS011;4483;48.622;9.230;2022-08-18T07:01:45;5.93;;;5.25;;
8893;SDS011;4483;48.622;9.230;2022-08-18T07:04:35;5.28;;;4.78;;
8893;SDS011;4483;48.622;9.230;2022-08-18T07:07:14;5.38;;;4.90;;
8893;SDS011;4483;48.622;9.230;2022-08-18T07:09:44;7.50;;;5.93;;
8893;SDS011;4483;48.622;9.230;2022-08-18T07:12:19;5.72;;;5.22;;
8893;SDS011;4483;48.622;9.230;2022-08-18T07:14:49;5.88;;;5.28;;
8893;SDS011;4483;48.622;9.230;2022-08-18T07:17:20;5.65;;;5.07;;
8893;SDS011;4483;48.622;9.230;2022-08-18T07:22:53;4.55;;;4.18;;
8893;SDS011;4483;48.622;9.230;2022-08-18T07:25:22;4.95;;;4.50;;
8893;SDS011;4483;48.622;9.230;2022-08-18T07:27:58;5.45;;;5.05;;
8893;SDS011;4483;48.622;9.230;2022-08-18T07:30:28;4.70;;;4.40;;
8893;SDS011;4483;48.622;9.230;2022-08-18T07:32:59;4.78;;;4.35;;
8893;SDS011;4483;48.622;9.230;2022-08-18T07:35:44;5.00;;;4.50;;
8893;SDS011;4483;48.622;9.230;2022-08-18T07:38:16;4.72;;;4.32;;
8893;SDS011;4483;48.622;9.230;2022-08-18T07:40:50;4.80;;;4.40;;
8893;SDS011;4483;48.622;9.230;2022-08-18T07:43:26;5.35;;;4.90;;
8893;SDS011;4483;48.622;9.230;2022-08-18T07:46:01;4.90;;;4.53;;
8893;SDS011;4483;48.622;9.230;2022-08-18T07:48:33;5.90;;;5.30;;
8893;SDS011;4483;48.622;9.230;2022-08-18T07:51:02;6.20;;;5.47;;
8893;SDS011;4483;48.622;9.230;2022-08-18T07:53:36;5.78;;;5.38;;
8893;SDS011;4483;48.622;9.230;2022-08-18T07:56:14;5.45;;;5.03;;
8893;SDS011;4483;48.622;9.230;2022-08-18T07:58:51;5.82;;;5.28;;
8893;SDS011;4483;48.622;9.230;2022-08-18T08:01:25;6.05;;;5.45;;
8893;SDS011;4483;48.622;9.230;2022-08-18T08:04:01;5.70;;;5.20;;
8893;SDS011;4483;48.622;9.230;2022-08-18T08:06:38;5.70;;;5.15;;
8893;SDS011;4483;48.622;9.230;2022-08-18T08:09:10;7.22;;;5.50;;
8893;SDS011;4483;48.622;9.230;2022-08-18T08:11:48;5.47;;;5.07;;
8893;SDS011;4483;48.622;9.230;2022-08-18T08:14:25;5.88;;;5.40;;
8893;SDS011;4483;48.622;9.230;2022-08-18T08:17:06;6.07;;;5.40;;
8893;SDS011;4483;48.622;9.230;2022-08-18T08:19:48;5.40;;;4.93;;
8893;SDS011;4483;48.622;9.230;2022-08-18T08:22:39;6.82;;;5.68;;
8893;SDS011;4483;48.622;9.230;2022-08-18T08:25:17;5.80;;;5.30;;
8893;SDS011;4483;48.622;9.230;2022-08-18T08:27:53;6.20;;;5.60;;
8893;SDS011;4483;48.622;9.230;2022-08-18T08:30:34;5.97;;;5.22;;
8893;SDS011;4483;48.622;9.230;2022-08-18T08:33:09;6.22;;;5.63;;
8893;SDS011;4483;48.622;9.230;2022-08-18T08:35:44;7.38;;;5.28;;
8893;SDS011;4483;48.622;9.230;2022-08-18T08:38:17;5.80;;;5.28;;
8893;SDS011;4483;48.622;9.230;2022-08-18T08:40:49;5.85;;;5.22;;
8893;SDS011;4483;48.622;9.230;2022-08-18T08:43:23;6.03;;;5.43;;
8893;SDS011;4483;48.622;9.230;2022-08-18T08:46:01;5.78;;;5.28;;
8893;SDS011;4483;48.622;9.230;2022-08-18T08:48:35;6.75;;;5.43;;
8893;SDS011;4483;48.622;9.230;2022-08-18T08:51:23;5.63;;;5.13;;
8893;SDS011;4483;48.622;9.230;2022-08-18T08:54:00;5.45;;;4.90;;
8893;SDS011;4483;48.622;9.230;2022-08-18T08:56:32;5.85;;;5.35;;
8893;SDS011;4483;48.622;9.230;2022-08-18T08:59:05;5.53;;;5.13;;
8893;SDS011;4483;48.622;9.230;2022-08-18T09:01:38;5.50;;;5.00;;
8893;SDS011;4483;48.622;9.230;2022-08-18T09:04:16;5.75;;;5.20;;
8893;SDS011;4483;48.622;9.230;2022-08-18T09:06:57;5.95;;;5.40;;
8893;SDS011;4483;48.622;9.230;2022-08-18T09:09:46;5.35;;;4.95;;
8893;SDS011;4483;48.622;9.230;2022-08-18T09:12:30;5.72;;;5.25;;
8893;SDS011;4483;48.622;9.230;2022-08-18T09:15:19;5.63;;;5.07;;
8893;SDS011;4483;48.622;9.230;2022-08-18T09:18:24;5.50;;;5.00;;
8893;SDS011;4483;48.622;9.230;2022-08-18T09:21:13;5.53;;;5.00;;
8893;SDS011;4483;48.622;9.230;2022-08-18T09:23:47;5.68;;;5.28;;
8893;SDS011;4483;48.622;9.230;2022-08-18T09:26:22;5.28;;;4.88;;
8893;SDS011;4483;48.622;9.230;2022-08-18T09:28:53;5.68;;;5.28;;
8893;SDS011;4483;48.622;9.230;2022-08-18T09:31:24;6.85;;;5.28;;
8893;SDS011;4483;48.622;9.230;2022-08-18T09:36:56;6.10;;;5.57;;
8893;SDS011;4483;48.622;9.230;2022-08-18T09:39:31;5.78;;;4.90;;
8893;SDS011;4483;48.622;9.230;2022-08-18T09:42:25;5.60;;;5.10;;
8893;SDS011;4483;48.622;9.230;2022-08-18T09:45:08;7.97;;;5.50;;
8893;SDS011;4483;48.622;9.230;2022-08-18T09:53:47;6.03;;;5.50;;
8893;SDS011;4483;48.622;9.230;2022-08-18T09:59:49;6.35;;;5.82;;
8893;SDS011;4483;48.622;9.230;2022-08-18T10:05:36;6.57;;;6.00;;
8893;SDS011;4483;48.622;9.230;2022-08-18T10:11:16;6.68;;;6.07;;
8893;SDS011;4483;48.622;9.230;2022-08-18T10:13:57;6.10;;;5.50;;
8893;SDS011;4483;48.622;9.230;2022-08-18T10:16:34;6.82;;;6.22;;
8893;SDS011;4483;48.622;9.230;2022-08-18T10:19:11;8.10;;;6.07;;
8893;SDS011;4483;48.622;9.230;2022-08-18T10:22:02;6.93;;;6.22;;
8893;SDS011;4483;48.622;9.230;2022-08-18T10:24:32;7.70;;;5.85;;
8893;SDS011;4483;48.622;9.230;2022-08-18T10:27:05;6.25;;;5.72;;
8893;SDS011;4483;48.622;9.230;2022-08-18T10:32:34;7.38;;;6.68;;
8893;SDS011;4483;48.622;9.230;2022-08-18T10:35:05;7.97;;;7.18;;
8893;SDS011;4483;48.622;9.230;2022-08-18T10:38:23;7.10;;;6.45;;
8893;SDS011;4483;48.622;9.230;2022-08-18T10:41:04;7.00;;;6.35;;
8893;SDS011;4483;48.622;9.230;2022-08-18T10:43:40;8.55;;;7.82;;
8893;SDS011;4483;48.622;9.230;2022-08-18T10:46:15;7.57;;;6.75;;
8893;SDS011;4483;48.622;9.230;2022-08-18T10:48:56;8.13;;;6.50;;
8893;SDS011;4483;48.622;9.230;2022-08-18T10:51:28;7.95;;;7.35;;
8893;SDS011;4483;48.622;9.230;2022-08-18T10:54:06;8.43;;;7.47;;
8893;SDS011;4483;48.622;9.230;2022-08-18T10:56:43;8.85;;;7.97;;
8893;SDS011;4483;48.622;9.230;2022-08-18T10:59:18;8.20;;;7.40;;
8893;SDS011;4483;48.622;9.230;2022-08-18T11:02:00;8.50;;;7.63;;
8893;SDS011;4483;48.622;9.230;2022-08-18T11:04:40;8.80;;;8.00;;
8893;SDS011;4483;48.622;9.230;2022-08-18T11:07:11;8.60;;;7.72;;
8893;SDS011;4483;48.622;9.230;2022-08-18T11:09:40;9.13;;;8.30;;
8893;SDS011;4483;48.622;9.230;2022-08-18T11:12:10;8.70;;;7.78;;
8893;SDS011;4483;48.622;9.230;2022-08-18T11:17:47;8.77;;;7.97;;
8893;SDS011;4483;48.622;9.230;2022-08-18T11:20:32;10.50;;;7.82;;
8893;SDS011;4483;48.622;9.230;2022-08-18T11:23:00;8.60;;;7.85;;
8893;SDS011;4483;48.622;9.230;2022-08-18T11:25:29;7.95;;;7.13;;
8893;SDS011;4483;48.622;9.230;2022-08-18T11:27:58;7.45;;;6.75;;
8893;SDS011;4483;48.622;9.230;2022-08-18T11:30:28;7.80;;;6.97;;
8893;SDS011;4483;48.622;9.230;2022-08-18T11:33:01;7.68;;;7.00;;
8893;SDS011;4483;48.622;9.230;2022-08-18T11:35:29;7.30;;;5.63;;
8893;SDS011;4483;48.622;9.230;2022-08-18T11:37:59;6.45;;;5.93;;
8893;SDS011;4483;48.622;9.230;2022-08-18T11:40:31;7.30;;;5.57;;
8893;SDS011;4483;48.622;9.230;2022-08-18T11:43:01;6.00;;;5.10;;
8893;SDS011;4483;48.622;9.230;2022-08-18T11:45:33;5.60;;;5.10;;
8893;SDS011;4483;48.622;9.230;2022-08-18T11:48:16;7.18;;;4.82;;
8893;SDS011;4483;48.622;9.230;2022-08-18T11:50:48;7.10;;;5.07;;
8893;SDS011;4483;48.622;9.230;2022-08-18T11:53:34;6.93;;;5.50;;
8893;SDS011;4483;48.622;9.230;2022-08-18T11:56:05;5.63;;;5.22;;
8893;SDS011;4483;48.622;9.230;2022-08-18T11:58:40;4.97;;;4.57;;
8893;SDS011;4483;48.622;9.230;2022-08-18T12:01:11;5.97;;;5.57;;
8893;SDS011;4483;48.622;9.230;2022-08-18T12:03:56;6.20;;;5.30;;
8893;SDS011;4483;48.622;9.230;2022-08-18T12:06:32;5.78;;;5.25;;
8893;SDS011;4483;48.622;9.230;2022-08-18T12:09:00;5.95;;;5.45;;
8893;SDS011;4483;48.622;9.230;2022-08-18T12:11:30;4.97;;;4.57;;
8893;SDS011;4483;48.622;9.230;2022-08-18T12:14:00;5.70;;;5.22;;
8893;SDS011;4483;48.622;9.230;2022-08-18T12:16:33;6.35;;;5.68;;
8893;SDS011;4483;48.622;9.230;2022-08-18T12:19:04;5.80;;;5.38;;
8893;SDS011;4483;48.622;9.230;2022-08-18T12:21:33;6.10;;;5.35;;
8893;SDS011;4483;48.622;9.230;2022-08-18T12:24:03;10.63;;;6.07;;
8893;SDS011;4483;48.622;9.230;2022-08-18T12:26:31;6.03;;;5.60;;
8893;SDS011;4483;48.622;9.230;2022-08-18T12:28:58;8.15;;;6.43;;
8893;SDS011;4483;48.622;9.230;2022-08-18T12:31:24;7.40;;;6.20;;
8893;SDS011;4483;48.622;9.230;2022-08-18T12:33:52;5.55;;;5.22;;
8893;SDS011;4483;48.622;9.230;2022-08-18T12:36:19;6.72;;;5.60;;
8893;SDS011;4483;48.622;9.230;2022-08-18T12:38:46;9.15;;;5.40;;
8893;SDS011;4483;48.622;9.230;2022-08-18T12:41:13;6.18;;;5.68;;
8893;SDS011;4483;48.622;9.230;2022-08-18T12:43:40;7.38;;;6.05;;
8893;SDS011;4483;48.622;9.230;2022-08-18T12:46:08;7.70;;;5.32;;
8893;SDS011;4483;48.622;9.230;2022-08-18T12:48:35;8.45;;;5.40;;
8893;SDS011;4483;48.622;9.230;2022-08-18T12:51:04;5.72;;;5.32;;
8893;SDS011;4483;48.622;9.230;2022-08-18T12:53:32;7.28;;;5.85;;
8893;SDS011;4483;48.622;9.230;2022-08-18T12:55:59;8.10;;;6.32;;
8893;SDS011;4483;48.622;9.230;2022-08-18T12:58:26;6.70;;;5.80;;
8893;SDS011;4483;48.622;9.230;2022-08-18T13:00:54;5.93;;;5.38;;
8893;SDS011;4483;48.622;9.230;2022-08-18T13:03:20;6.35;;;5.40;;
8893;SDS011;4483;48.622;9.230;2022-08-18T13:05:47;8.60;;;5.30;;
8893;SDS011;4483;48.622;9.230;2022-08-18T13:08:17;5.88;;;5.47;;
8893;SDS011;4483;48.622;9.230;2022-08-18T13:10:46;5.68;;;5.18;;
8893;SDS011;4483;48.622;9.230;2022-08-18T13:13:13;5.00;;;4.70;;
8893;SDS011;4483;48.622;9.230;2022-08-18T13:15:41;4.80;;;4.40;;
8893;SDS011;4483;48.622;9.230;2022-08-18T13:18:08;5.57;;;5.18;;
8893;SDS011;4483;48.622;9.230;2022-08-18T13:20:35;5.35;;;4.93;;
8893;SDS011;4483;48.622;9.230;2022-08-18T13:23:02;5.47;;;5.07;;
8893;SDS011;4483;48.622;9.230;2022-08-18T13:25:30;8.70;;;5.25;;
8893;SDS011;4483;48.622;9.230;2022-08-18T13:27:57;6.53;;;5.30;;
8893;SDS011;4483;48.622;9.230;2022-08-18T13:30:25;7.65;;;5.38;;
8893;SDS011;4483;48.622;9.230;2022-08-18T13:32:52;5.63;;;5.13;;
8893;SDS011;4483;48.622;9.230;2022-08-18T13:35:19;5.65;;;5.25;;
8893;SDS011;4483;48.622;9.230;2022-08-18T13:37:46;5.50;;;5.10;;
8893;SDS011;4483;48.622;9.230;2022-08-18T13:40:12;5.40;;;5.00;;
8893;SDS011;4483;48.622;9.230;2022-08-18T13:42:41;6.15;;;5.60;;
8893;SDS011;4483;48.622;9.230;2022-08-18T13:45:12;5.18;;;4.85;;
8893;SDS011;4483;48.622;9.230;2022-08-18T13:47:40;5.13;;;4.72;;
8893;SDS011;4483;48.622;9.230;2022-08-18T13:50:07;7.78;;;5.75;;
8893;SDS011;4483;48.622;9.230;2022-08-18T13:52:35;6.30;;;5.70;;
8893;SDS011;4483;48.622;9.230;2022-08-18T13:55:04;6.80;;;5.38;;
8893;SDS011;4483;48.622;9.230;2022-08-18T13:57:33;5.72;;;5.22;;
8893;SDS011;4483;48.622;9.230;2022-08-18T14:00:03;6.60;;;5.45;;
8893;SDS011;4483;48.622;9.230;2022-08-18T14:02:31;5.35;;;4.95;;
8893;SDS011;4483;48.622;9.230;2022-08-18T14:04:58;6.43;;;5.72;;
8893;SDS011;4483;48.622;9.230;2022-08-18T14:07:25;5.38;;;5.00;;
8893;SDS011;4483;48.622;9.230;2022-08-18T14:09:51;6.88;;;4.85;;
8893;SDS011;4483;48.622;9.230;2022-08-18T14:12:20;5.45;;;4.90;;
8893;SDS011;4483;48.622;9.230;2022-08-18T14:14:49;5.03;;;4.63;;
8893;SDS011;4483;48.622;9.230;2022-08-18T14:17:17;5.10;;;4.75;;
8893;SDS011;4483;48.622;9.230;2022-08-18T14:19:44;5.57;;;5.10;;
8893;SDS011;4483;48.622;9.230;2022-08-18T14:22:40;5.53;;;5.05;;
8893;SDS011;4483;48.622;9.230;2022-08-18T14:25:24;5.95;;;5.35;;
8893;SDS011;4483;48.622;9.230;2022-08-18T14:28:08;5.90;;;4.82;;
8893;SDS011;4483;48.622;9.230;2022-08-18T14:30:35;5.10;;;4.70;;
8893;SDS011;4483;48.622;9.230;2022-08-18T14:33:05;5.75;;;5.07;;
8893;SDS011;4483;48.622;9.230;2022-08-18T14:35:34;6.40;;;5.78;;
8893;SDS011;4483;48.622;9.230;2022-08-18T14:38:01;7.70;;;5.40;;
8893;SDS011;4483;48.622;9.230;2022-08-18T14:40:30;6.55;;;4.72;;
8893;SDS011;4483;48.622;9.230;2022-08-18T14:42:57;5.38;;;4.97;;
8893;SDS011;4483;48.622;9.230;2022-08-18T14:45:25;4.70;;;4.40;;
8893;SDS011;4483;48.622;9.230;2022-08-18T14:47:52;5.97;;;5.30;;
8893;SDS011;4483;48.622;9.230;2022-08-18T14:50:20;5.68;;;4.95;;
8893;SDS011;4483;48.622;9.230;2022-08-18T14:52:47;5.82;;;5.28;;
8893;SDS011;4483;48.622;9.230;2022-08-18T14:55:15;6.53;;;5.55;;
8893;SDS011;4483;48.622;9.230;2022-08-18T14:57:43;6.03;;;5.43;;
8893;SDS011;4483;48.622;9.230;2022-08-18T15:00:11;5.47;;;5.13;;
8893;SDS011;4483;48.622;9.230;2022-08-18T15:02:40;5.90;;;5.40;;
8893;SDS011;4483;48.622;9.230;2022-08-18T15:05:08;5.68;;;5.20;;
8893;SDS011;4483;48.622;9.230;2022-08-18T15:07:37;5.57;;;5.18;;
8893;SDS011;4483;48.622;9.230;2022-08-18T15:10:05;6.28;;;5.00;;
8893;SDS011;4483;48.622;9.230;2022-08-18T15:12:33;6.55;;;5.43;;
8893;SDS011;4483;48.622;9.230;2022-08-18T15:15:01;6.53;;;4.82;;
8893;SDS011;4483;48.622;9.230;2022-08-18T15:17:27;6.18;;;5.00;;
8893;SDS011;4483;48.622;9.230;2022-08-18T15:19:55;5.72;;;4.78;;
8893;SDS011;4483;48.622;9.230;2022-08-18T15:22:22;4.70;;;4.38;;
8893;SDS011;4483;48.622;9.230;2022-08-18T15:25:08;8.02;;;5.05;;
8893;SDS011;4483;48.622;9.230;2022-08-18T15:27:52;4.90;;;4.38;;
8893;SDS011;4483;48.622;9.230;2022-08-18T15:30:20;5.22;;;4.80;;
8893;SDS011;4483;48.622;9.230;2022-08-18T15:32:47;6.35;;;4.32;;
8893;SDS011;4483;48.622;9.230;2022-08-18T15:35:15;5.15;;;4.63;;
8893;SDS011;4483;48.622;9.230;2022-08-18T15:37:42;4.40;;;4.10;;
8893;SDS011;4483;48.622;9.230;2022-08-18T15:40:12;5.10;;;4.10;;
8893;SDS011;4483;48.622;9.230;2022-08-18T15:42:43;5.00;;;4.15;;
8893;SDS011;4483;48.622;9.230;2022-08-18T15:45:13;4.85;;;4.05;;
8893;SDS011;4483;48.622;9.230;2022-08-18T15:47:41;5.75;;;4.03;;
8893;SDS011;4483;48.622;9.230;2022-08-18T15:50:09;5.45;;;4.10;;
8893;SDS011;4483;48.622;9.230;2022-08-18T15:52:43;6.80;;;4.18;;
8893;SDS011;4483;48.622;9.230;2022-08-18T15:55:12;5.45;;;4.22;;
8893;SDS011;4483;48.622;9.230;2022-08-18T15:57:39;9.70;;;4.18;;
8893;SDS011;4483;48.622;9.230;2022-08-18T16:00:06;4.63;;;4.25;;
8893;SDS011;4483;48.622;9.230;2022-08-18T16:02:35;6.35;;;4.50;;
8893;SDS011;4483;48.622;9.230;2022-08-18T16:05:02;4.57;;;4.25;;
8893;SDS011;4483;48.622;9.230;2022-08-18T16:07:29;4.80;;;4.43;;
8893;SDS011;4483;48.622;9.230;2022-08-18T16:09:56;7.00;;;4.20;;